createdAt,value
2018-08-27T00:00:46.606Z,60.2
2018-08-27T00:01:47.724Z,60.7
2018-08-27T00:02:49.150Z,60.6
2018-08-27T00:03:49.872Z,60.6
2018-08-27T00:04:51.003Z,60.2
2018-08-27T00:05:52.120Z,60.2
2018-08-27T00:06:53.299Z,58.4
2018-08-27T00:07:54.370Z,58.1
2018-08-27T00:08:55.417Z,58.2
2018-08-27T00:09:56.461Z,58.0
2018-08-27T00:10:57.258Z,58.0
2018-08-27T00:11:58.046Z,57.7
2018-08-27T00:12:59.128Z,57.7
2018-08-27T00:14:00.207Z,57.6
2018-08-27T00:15:00.994Z,57.5
2018-08-27T00:16:02.003Z,57.3
2018-08-27T00:17:03.009Z,57.7
2018-08-27T00:18:04.012Z,58.2
2018-08-27T00:19:04.784Z,57.1
2018-08-27T00:20:05.838Z,57.3
2018-08-27T00:21:06.580Z,56.9
2018-08-27T00:22:07.585Z,56.9
2018-08-27T00:23:08.596Z,57.3
2018-08-27T00:24:09.579Z,57.2
2018-08-27T00:25:10.550Z,57.1
2018-08-27T00:26:11.617Z,57.6
2018-08-27T00:27:12.605Z,58.3
2018-08-27T00:28:13.321Z,57.7
2018-08-27T00:29:14.055Z,58.2
2018-08-27T00:30:14.771Z,58.0
2018-08-27T00:31:15.508Z,58.2
2018-08-27T00:32:16.227Z,60.2
2018-08-27T00:33:17.200Z,59.9
2018-08-27T00:34:17.917Z,60.1
2018-08-27T00:35:18.646Z,61.4
2018-08-27T00:36:19.455Z,61.7
2018-08-27T00:37:20.730Z,62.4
2018-08-27T00:38:21.462Z,64.7
2018-08-27T00:39:22.348Z,65.3
2018-08-27T00:40:23.100Z,65.3
2018-08-27T00:41:23.977Z,70.1
2018-08-27T00:42:24.657Z,69.7
2018-08-27T00:43:25.465Z,76.8
2018-08-27T00:44:26.298Z,86.5
2018-08-27T00:45:27.083Z,86.3
2018-08-27T00:46:27.831Z,92.4
2018-08-27T00:47:28.659Z,95.0
2018-08-27T00:48:29.403Z,97.2
2018-08-27T00:49:30.189Z,98.6
2018-08-27T00:50:30.958Z,98.2
2018-08-27T00:51:31.855Z,98.7
2018-08-27T00:52:32.696Z,100.0
2018-08-27T00:53:33.455Z,100.0
2018-08-27T00:54:34.789Z,100.0
2018-08-27T00:55:35.530Z,98.4
2018-08-27T00:56:36.372Z,97.6
2018-08-27T00:57:37.096Z,97.4
2018-08-27T00:58:37.846Z,100.0
2018-08-27T00:59:38.575Z,95.1
2018-08-27T01:00:39.301Z,100.0
2018-08-27T01:01:40.024Z,95.9
2018-08-27T01:02:40.994Z,99.7
2018-08-27T01:03:41.987Z,99.5
2018-08-27T01:04:43.096Z,100.0
2018-08-27T01:05:43.817Z,100.0
2018-08-27T01:06:44.788Z,100.0
2018-08-27T01:07:45.499Z,100.0
2018-08-27T01:08:46.215Z,97.4
2018-08-27T01:09:46.953Z,100.0
2018-08-27T01:10:47.673Z,100.0
2018-08-27T01:11:48.458Z,99.0
2018-08-27T01:12:49.196Z,100.0
2018-08-27T01:13:49.903Z,96.5
2018-08-27T01:14:50.628Z,98.6
2018-08-27T01:15:51.366Z,86.1
2018-08-27T01:16:52.077Z,87.3
2018-08-27T01:17:53.046Z,80.1
2018-08-27T01:18:53.763Z,68.1
2018-08-27T01:19:54.850Z,74.4
2018-08-27T01:20:55.564Z,71.7
2018-08-27T01:21:56.281Z,75.2
2018-08-27T01:22:57.255Z,69.4
2018-08-27T01:23:57.975Z,63.7
2018-08-27T01:24:58.737Z,60.8
2018-08-27T01:25:59.708Z,74.8
2018-08-27T01:27:00.426Z,74.8
2018-08-27T01:28:01.161Z,79.5
2018-08-27T01:29:01.875Z,73.6
2018-08-27T01:30:02.603Z,80.7
2018-08-27T01:31:03.333Z,73.0
2018-08-27T01:32:04.061Z,71.5
2018-08-27T01:33:04.783Z,72.4
2018-08-27T01:34:05.501Z,87.5
2018-08-27T01:35:06.475Z,87.3
2018-08-27T01:36:07.184Z,90.4
2018-08-27T01:37:07.957Z,88.6
2018-08-27T01:38:08.675Z,85.1
2018-08-27T01:39:09.388Z,92.5
2018-08-27T01:40:10.119Z,88.9
2018-08-27T01:41:10.830Z,95.2
2018-08-27T01:42:11.547Z,92.7
2018-08-27T01:43:12.272Z,93.3
2018-08-27T01:44:13.010Z,88.9
2018-08-27T01:45:13.991Z,79.8
2018-08-27T01:46:14.702Z,72.9
2018-08-27T01:47:15.684Z,82.8
2018-08-27T01:48:16.409Z,65.6
2018-08-27T01:49:17.126Z,61.7
2018-08-27T01:50:17.845Z,72.1
2018-08-27T01:51:18.818Z,75.7
2018-08-27T01:52:19.531Z,72.7
2018-08-27T01:53:20.496Z,66.4
2018-08-27T01:54:21.214Z,74.9
2018-08-27T01:55:21.931Z,72.5
2018-08-27T01:56:22.665Z,72.3
2018-08-27T01:57:23.375Z,74.3
2018-08-27T01:58:24.110Z,81.1
2018-08-27T01:59:24.903Z,79.3
2018-08-27T02:00:25.621Z,80.0
2018-08-27T02:01:26.596Z,82.6
2018-08-27T02:02:27.300Z,85.5
2018-08-27T02:03:28.013Z,79.9
2018-08-27T02:04:28.729Z,83.3
2018-08-27T02:05:29.498Z,81.4
2018-08-27T02:06:30.213Z,78.6
2018-08-27T02:07:30.942Z,74.6
2018-08-27T02:08:31.672Z,80.8
2018-08-27T02:09:32.397Z,74.8
2018-08-27T02:10:33.113Z,76.9
2018-08-27T02:11:34.089Z,79.1
2018-08-27T02:12:34.850Z,77.0
2018-08-27T02:13:35.577Z,75.7
2018-08-27T02:14:36.304Z,78.2
2018-08-27T02:15:37.033Z,74.5
2018-08-27T02:16:37.755Z,76.3
2018-08-27T02:17:38.475Z,68.9
2018-08-27T02:18:39.190Z,72.7
2018-08-27T02:19:39.905Z,67.3
2018-08-27T02:20:41.029Z,66.0
2018-08-27T02:21:41.781Z,65.8
2018-08-27T02:22:42.753Z,66.4
2018-08-27T02:23:43.744Z,67.7
2018-08-27T02:24:44.510Z,67.4
2018-08-27T02:25:45.265Z,63.2
2018-08-27T02:26:45.952Z,63.4
2018-08-27T02:27:46.928Z,59.3
2018-08-27T02:28:47.944Z,58.0
2018-08-27T02:29:48.646Z,62.4
2018-08-27T02:30:49.369Z,65.0
2018-08-27T02:31:50.087Z,64.0
2018-08-27T02:32:50.798Z,63.8
2018-08-27T02:33:51.575Z,66.9
2018-08-27T02:34:52.360Z,69.8
2018-08-27T02:35:53.014Z,66.9
2018-08-27T02:36:53.747Z,59.8
2018-08-27T02:37:54.464Z,69.1
2018-08-27T02:38:55.235Z,68.6
2018-08-27T02:39:56.197Z,71.8
2018-08-27T02:40:56.969Z,70.8
2018-08-27T02:41:57.693Z,71.8
2018-08-27T02:42:58.412Z,71.8
2018-08-27T02:43:59.140Z,72.6
2018-08-27T02:44:59.858Z,71.7
2018-08-27T02:46:00.579Z,75.0
2018-08-27T02:47:01.309Z,72.0
2018-08-27T02:48:02.010Z,69.4
2018-08-27T02:49:02.729Z,74.0
2018-08-27T02:50:03.455Z,74.0
2018-08-27T02:51:04.180Z,69.3
2018-08-27T02:52:04.943Z,68.9
2018-08-27T02:53:05.661Z,77.2
2018-08-27T02:54:06.374Z,76.9
2018-08-27T02:55:07.096Z,74.6
2018-08-27T02:56:07.819Z,73.0
2018-08-27T02:57:08.587Z,79.5
2018-08-27T02:58:09.297Z,73.8
2018-08-27T02:59:10.015Z,81.5
2018-08-27T03:00:10.733Z,80.6
2018-08-27T03:01:11.454Z,78.0
2018-08-27T03:02:12.223Z,82.2
2018-08-27T03:03:12.939Z,80.3
2018-08-27T03:04:13.907Z,75.0
2018-08-27T03:05:14.869Z,74.6
2018-08-27T03:06:15.835Z,78.7
2018-08-27T03:07:16.603Z,79.9
2018-08-27T03:08:17.323Z,79.2
2018-08-27T03:09:18.052Z,82.5
2018-08-27T03:10:18.766Z,86.5
2018-08-27T03:11:19.478Z,86.9
2018-08-27T03:12:20.194Z,89.4
2018-08-27T03:13:21.218Z,88.8
2018-08-27T03:14:22.195Z,88.2
2018-08-27T03:15:22.903Z,88.5
2018-08-27T03:16:23.620Z,93.0
2018-08-27T03:17:24.331Z,87.4
2018-08-27T03:18:25.055Z,94.3
2018-08-27T03:19:25.832Z,93.5
2018-08-27T03:20:26.555Z,87.8
2018-08-27T03:21:27.275Z,91.5
2018-08-27T03:22:27.983Z,94.1
2018-08-27T03:23:28.702Z,94.5
2018-08-27T03:24:29.446Z,92.2
2018-08-27T03:25:30.421Z,91.9
2018-08-27T03:26:31.134Z,92.1
2018-08-27T03:27:31.857Z,95.1
2018-08-27T03:28:32.578Z,97.9
2018-08-27T03:29:33.351Z,97.2
2018-08-27T03:30:34.071Z,95.8
2018-08-27T03:31:34.796Z,95.9
2018-08-27T03:32:35.505Z,96.4
2018-08-27T03:33:36.242Z,96.9
2018-08-27T03:34:36.955Z,94.9
2018-08-27T03:35:37.928Z,98.9
2018-08-27T03:36:38.660Z,99.0
2018-08-27T03:37:39.367Z,93.6
2018-08-27T03:38:40.089Z,100.0
2018-08-27T03:39:40.809Z,100.0
2018-08-27T03:40:41.560Z,99.2
2018-08-27T03:41:42.239Z,100.0
2018-08-27T03:42:42.958Z,100.0
2018-08-27T03:43:43.677Z,100.0
2018-08-27T03:44:44.402Z,100.0
2018-08-27T03:45:45.129Z,99.2
2018-08-27T03:46:45.881Z,100.0
2018-08-27T03:47:46.603Z,100.0
2018-08-27T03:48:47.331Z,100.0
2018-08-27T03:49:48.075Z,100.0
2018-08-27T03:50:48.769Z,100.0
2018-08-27T03:51:49.545Z,100.0
2018-08-27T03:52:50.266Z,100.0
2018-08-27T03:53:50.978Z,100.0
2018-08-27T03:54:51.708Z,100.0
2018-08-27T03:55:52.425Z,100.0
2018-08-27T03:56:53.206Z,100.0
2018-08-27T03:57:53.927Z,100.0
2018-08-27T03:58:54.888Z,100.0
2018-08-27T03:59:55.651Z,100.0
2018-08-27T04:00:56.367Z,100.0
2018-08-27T04:01:57.075Z,100.0
2018-08-27T04:02:57.857Z,100.0
2018-08-27T04:03:58.582Z,100.0
2018-08-27T04:04:59.306Z,100.0
2018-08-27T04:06:00.022Z,100.0
2018-08-27T04:07:01.002Z,100.0
2018-08-27T04:08:01.734Z,100.0
2018-08-27T04:09:02.453Z,100.0
2018-08-27T04:10:03.191Z,100.0
2018-08-27T04:11:04.166Z,100.0
2018-08-27T04:12:05.128Z,100.0
2018-08-27T04:13:05.851Z,100.0
2018-08-27T04:14:06.555Z,100.0
2018-08-27T04:15:07.278Z,100.0
2018-08-27T04:16:08.007Z,100.0
2018-08-27T04:17:08.984Z,100.0
2018-08-27T04:18:09.705Z,100.0
2018-08-27T04:19:10.681Z,100.0
2018-08-27T04:20:11.396Z,100.0
2018-08-27T04:21:12.110Z,100.0
2018-08-27T04:22:12.877Z,100.0
2018-08-27T04:23:13.604Z,100.0
2018-08-27T04:24:14.330Z,100.0
2018-08-27T04:25:15.048Z,100.0
2018-08-27T04:26:15.774Z,100.0
2018-08-27T04:27:16.550Z,100.0
2018-08-27T04:28:17.304Z,100.0
2018-08-27T04:29:18.003Z,100.0
2018-08-27T04:30:18.728Z,100.0
2018-08-27T04:31:19.456Z,100.0
2018-08-27T04:32:20.172Z,100.0
2018-08-27T04:33:20.903Z,100.0
2018-08-27T04:34:21.637Z,100.0
2018-08-27T04:35:22.361Z,100.0
2018-08-27T04:36:23.084Z,100.0
2018-08-27T04:37:23.814Z,100.0
2018-08-27T04:38:24.578Z,100.0
2018-08-27T04:39:25.566Z,100.0
2018-08-27T04:40:26.281Z,100.0
2018-08-27T04:41:27.008Z,100.0
2018-08-27T04:42:27.754Z,100.0
2018-08-27T04:43:28.468Z,100.0
2018-08-27T04:44:29.440Z,100.0
2018-08-27T04:45:30.163Z,100.0
2018-08-27T04:46:30.915Z,100.0
2018-08-27T04:47:31.610Z,100.0
2018-08-27T04:48:32.346Z,100.0
2018-08-27T04:49:33.362Z,100.0
2018-08-27T04:50:34.038Z,100.0
2018-08-27T04:51:34.764Z,100.0
2018-08-27T04:52:35.485Z,100.0
2018-08-27T04:53:36.465Z,100.0
2018-08-27T04:54:37.528Z,100.0
2018-08-27T04:55:38.251Z,99.9
2018-08-27T04:56:38.975Z,99.9
2018-08-27T04:57:39.703Z,100.0
2018-08-27T04:58:40.416Z,99.2
2018-08-27T04:59:41.148Z,97.5
2018-08-27T05:00:41.861Z,93.4
2018-08-27T05:01:42.569Z,93.4
2018-08-27T05:02:43.542Z,91.7
2018-08-27T05:03:44.266Z,91.0
2018-08-27T05:04:44.977Z,91.4
2018-08-27T05:05:45.713Z,89.6
2018-08-27T05:06:46.434Z,89.8
2018-08-27T05:07:47.418Z,89.7
2018-08-27T05:08:48.152Z,89.3
2018-08-27T05:09:48.873Z,88.4
2018-08-27T05:10:49.585Z,87.9
2018-08-27T05:11:50.312Z,86.4
2018-08-27T05:12:51.036Z,86.4
2018-08-27T05:13:51.755Z,86.4
2018-08-27T05:14:52.478Z,86.1
2018-08-27T05:15:53.203Z,86.7
2018-08-27T05:16:54.553Z,86.1
2018-08-27T05:17:55.280Z,86.4
2018-08-27T05:18:56.000Z,85.6
2018-08-27T05:19:56.718Z,86.9
2018-08-27T05:20:57.442Z,84.2
2018-08-27T05:21:58.218Z,86.1
2018-08-27T05:22:58.945Z,82.8
2018-08-27T05:23:59.680Z,73.1
2018-08-27T05:25:00.395Z,69.4
2018-08-27T05:26:01.123Z,69.2
2018-08-27T05:27:01.849Z,67.3
2018-08-27T05:28:02.843Z,56.1
2018-08-27T05:29:03.554Z,50.0
2018-08-27T05:30:04.525Z,41.2
2018-08-27T05:31:05.361Z,39.6
2018-08-27T05:32:06.030Z,43.4
2018-08-27T05:33:06.759Z,47.1
2018-08-27T05:34:07.478Z,44.1
2018-08-27T05:35:08.212Z,51.9
2018-08-27T05:36:08.941Z,49.5
2018-08-27T05:37:09.664Z,51.8
2018-08-27T05:38:10.700Z,44.9
2018-08-27T05:39:11.366Z,45.7
2018-08-27T05:40:12.094Z,47.0
2018-08-27T05:41:13.419Z,49.4
2018-08-27T05:42:14.145Z,52.5
2018-08-27T05:43:14.876Z,52.4
2018-08-27T05:44:15.590Z,49.7
2018-08-27T05:45:16.315Z,51.0
2018-08-27T05:46:17.386Z,49.4
2018-08-27T05:47:18.110Z,49.5
2018-08-27T05:48:18.829Z,47.0
2018-08-27T05:49:19.549Z,47.2
2018-08-27T05:50:20.282Z,47.9
2018-08-27T05:51:21.060Z,47.7
2018-08-27T05:52:21.884Z,46.2
2018-08-27T05:53:22.500Z,49.9
2018-08-27T05:54:23.235Z,40.3
2018-08-27T05:55:23.960Z,39.3
2018-08-27T05:56:24.679Z,35.6
2018-08-27T05:57:25.400Z,35.5
2018-08-27T05:58:26.128Z,30.7
2018-08-27T05:59:26.859Z,31.0
2018-08-27T06:00:27.577Z,33.7
2018-08-27T06:01:28.326Z,27.9
2018-08-27T06:02:29.024Z,28.6
2018-08-27T06:03:30.017Z,27.3
2018-08-27T06:04:31.082Z,21.3
2018-08-27T06:05:31.813Z,21.6
2018-08-27T06:06:32.534Z,16.3
2018-08-27T06:07:33.266Z,10.5
2018-08-27T06:08:33.983Z,6.1
2018-08-27T06:09:34.709Z,6.7
2018-08-27T06:10:35.431Z,9.2
2018-08-27T06:11:36.146Z,4.9
2018-08-27T06:12:36.872Z,0.0
2018-08-27T06:13:37.589Z,0.0
2018-08-27T06:14:38.371Z,0.0
2018-08-27T06:15:39.090Z,0.0
2018-08-27T06:16:39.855Z,0.0
2018-08-27T06:17:40.542Z,0.0
2018-08-27T06:18:41.265Z,0.0
2018-08-27T06:19:41.977Z,0.0
2018-08-27T06:20:42.705Z,0.0
2018-08-27T06:21:43.457Z,0.0
2018-08-27T06:22:44.151Z,0.0
2018-08-27T06:23:44.863Z,0.0
2018-08-27T06:24:45.589Z,0.0
2018-08-27T06:25:46.313Z,0.0
2018-08-27T06:26:47.041Z,0.0
2018-08-27T06:27:48.023Z,0.0
2018-08-27T06:28:48.746Z,0.0
2018-08-27T06:29:49.465Z,0.0
2018-08-27T06:30:50.199Z,0.0
2018-08-27T06:31:50.919Z,0.0
2018-08-27T06:32:51.638Z,0.0
2018-08-27T06:33:52.359Z,0.0
2018-08-27T06:34:53.090Z,0.0
2018-08-27T06:35:54.066Z,0.0
2018-08-27T06:36:55.029Z,0.0
2018-08-27T06:37:56.007Z,0.0
2018-08-27T06:38:56.725Z,0.0
2018-08-27T06:39:57.449Z,0.0
2018-08-27T06:40:58.166Z,0.0
2018-08-27T06:41:58.898Z,0.0
2018-08-27T06:42:59.599Z,0.0
2018-08-27T06:44:00.313Z,0.0
2018-08-27T06:45:01.036Z,0.0
2018-08-27T06:46:01.766Z,0.0
2018-08-27T06:47:02.486Z,0.0
2018-08-27T06:48:03.501Z,0.0
2018-08-27T06:49:04.223Z,0.0
2018-08-27T06:50:04.944Z,0.0
2018-08-27T06:51:05.917Z,0.0
2018-08-27T06:52:06.672Z,0.0
2018-08-27T06:53:07.434Z,0.0
2018-08-27T06:54:08.169Z,0.0
2018-08-27T06:55:08.901Z,0.0
2018-08-27T06:56:09.621Z,0.0
2018-08-27T06:57:10.349Z,0.0
2018-08-27T06:58:11.106Z,0.0
2018-08-27T06:59:11.842Z,0.0
2018-08-27T07:00:12.558Z,0.0
2018-08-27T07:01:13.283Z,0.0
2018-08-27T07:02:14.063Z,0.0
2018-08-27T07:03:14.721Z,0.0
2018-08-27T07:04:15.687Z,0.0
2018-08-27T07:05:16.418Z,0.0
2018-08-27T07:06:17.137Z,0.0
2018-08-27T07:07:17.854Z,0.0
2018-08-27T07:08:18.565Z,0.0
2018-08-27T07:09:19.294Z,0.0
2018-08-27T07:10:20.017Z,0.0
2018-08-27T07:11:20.741Z,0.0
2018-08-27T07:12:21.467Z,0.0
2018-08-27T07:13:22.186Z,0.0
2018-08-27T07:14:22.908Z,0.0
2018-08-27T07:15:23.634Z,0.0
2018-08-27T07:16:24.743Z,0.0
2018-08-27T07:17:25.455Z,0.0
2018-08-27T07:18:26.190Z,0.0
2018-08-27T07:19:26.974Z,0.0
2018-08-27T07:20:27.945Z,0.0
2018-08-27T07:21:28.747Z,0.0
2018-08-27T07:22:29.482Z,0.0
2018-08-27T07:23:30.211Z,0.0
2018-08-27T07:24:30.989Z,0.0
2018-08-27T07:25:31.717Z,0.0
2018-08-27T07:26:32.436Z,0.0
2018-08-27T07:27:33.233Z,0.0
2018-08-27T07:28:34.101Z,0.0
2018-08-27T07:29:34.899Z,0.0
2018-08-27T07:30:35.610Z,0.0
2018-08-27T07:31:36.325Z,0.0
2018-08-27T07:32:37.055Z,0.0
2018-08-27T07:33:37.787Z,0.0
2018-08-27T07:34:38.498Z,0.0
2018-08-27T07:35:39.301Z,0.0
2018-08-27T07:36:40.327Z,0.0
2018-08-27T07:37:41.014Z,0.0
2018-08-27T07:38:41.726Z,0.0
2018-08-27T07:39:42.446Z,0.0
2018-08-27T07:40:43.174Z,0.0
2018-08-27T07:41:44.494Z,0.0
2018-08-27T07:42:45.221Z,0.0
2018-08-27T07:43:45.929Z,0.0
2018-08-27T07:44:46.657Z,0.0
2018-08-27T07:45:47.380Z,0.0
2018-08-27T07:46:48.105Z,0.0
2018-08-27T07:47:48.827Z,0.0
2018-08-27T07:48:49.606Z,0.0
2018-08-27T07:49:50.318Z,0.0
2018-08-27T07:50:51.039Z,0.0
2018-08-27T07:51:51.765Z,0.0
2018-08-27T07:52:52.493Z,0.0
2018-08-27T07:53:53.558Z,0.0
2018-08-27T07:54:54.283Z,0.0
2018-08-27T07:55:55.018Z,0.0
2018-08-27T07:56:55.745Z,0.0
2018-08-27T07:57:56.458Z,0.0
2018-08-27T07:58:57.185Z,0.0
2018-08-27T07:59:57.911Z,0.0
2018-08-27T08:00:58.634Z,0.0
2018-08-27T08:01:59.597Z,0.0
2018-08-27T08:03:00.323Z,0.0
2018-08-27T08:04:01.342Z,0.0
2018-08-27T08:05:02.072Z,0.0
2018-08-27T08:06:02.789Z,0.0
2018-08-27T08:07:03.563Z,0.0
2018-08-27T08:08:04.227Z,0.0
2018-08-27T08:09:04.944Z,0.0
2018-08-27T08:10:05.673Z,0.0
2018-08-27T08:11:06.384Z,0.0
2018-08-27T08:12:07.111Z,0.0
2018-08-27T08:13:07.835Z,0.0
2018-08-27T08:14:08.556Z,0.0
2018-08-27T08:15:09.631Z,0.0
2018-08-27T08:16:10.357Z,0.0
2018-08-27T08:17:11.083Z,0.0
2018-08-27T08:18:11.806Z,0.0
2018-08-27T08:19:12.540Z,0.0
2018-08-27T08:20:13.257Z,0.0
2018-08-27T08:21:13.975Z,0.0
2018-08-27T08:22:14.712Z,0.0
2018-08-27T08:23:15.443Z,0.0
2018-08-27T08:24:16.178Z,0.0
2018-08-27T08:25:18.083Z,0.0
2018-08-27T08:26:19.569Z,0.0
2018-08-27T08:27:20.441Z,0.0
2018-08-27T08:28:21.191Z,0.0
2018-08-27T08:29:21.907Z,0.0
2018-08-27T08:30:22.629Z,0.0
2018-08-27T08:31:23.361Z,0.0
2018-08-27T08:32:24.082Z,0.0
2018-08-27T08:33:24.929Z,0.0
2018-08-27T08:34:25.535Z,0.0
2018-08-27T08:35:26.271Z,0.0
2018-08-27T08:36:26.997Z,0.0
2018-08-27T08:37:27.721Z,0.0
2018-08-27T08:38:28.440Z,0.0
2018-08-27T08:39:29.176Z,0.0
2018-08-27T08:40:29.894Z,0.0
2018-08-27T08:41:30.613Z,0.0
2018-08-27T08:42:31.339Z,0.0
2018-08-27T08:43:32.063Z,0.0
2018-08-27T08:44:32.787Z,0.0
2018-08-27T08:45:33.508Z,0.0
2018-08-27T08:46:34.238Z,0.0
2018-08-27T08:47:35.003Z,0.0
2018-08-27T08:48:35.733Z,0.0
2018-08-27T08:49:36.458Z,0.0
2018-08-27T08:50:37.172Z,0.0
2018-08-27T08:51:37.894Z,0.0
2018-08-27T08:52:38.971Z,0.0
2018-08-27T08:53:39.707Z,0.0
2018-08-27T08:54:40.427Z,0.0
2018-08-27T08:55:41.159Z,0.0
2018-08-27T08:56:41.881Z,0.0
2018-08-27T08:57:42.606Z,0.0
2018-08-27T08:58:43.593Z,0.0
2018-08-27T08:59:44.375Z,0.0
2018-08-27T09:00:45.091Z,0.0
2018-08-27T09:01:45.857Z,0.0
2018-08-27T09:02:46.527Z,0.0
2018-08-27T09:03:47.252Z,0.0
2018-08-27T09:04:47.981Z,0.0
2018-08-27T09:05:48.712Z,0.0
2018-08-27T09:06:49.422Z,0.0
2018-08-27T09:07:50.461Z,0.0
2018-08-27T09:08:51.211Z,0.0
2018-08-27T09:09:51.925Z,0.0
2018-08-27T09:10:52.646Z,0.0
2018-08-27T09:11:53.364Z,0.0
2018-08-27T09:12:54.099Z,0.0
2018-08-27T09:13:54.813Z,0.0
2018-08-27T09:14:55.533Z,0.0
2018-08-27T09:15:56.624Z,0.0
2018-08-27T09:16:57.347Z,0.0
2018-08-27T09:17:58.070Z,0.0
2018-08-27T09:18:58.801Z,0.0
2018-08-27T09:19:59.523Z,0.0
2018-08-27T09:21:00.308Z,0.0
2018-08-27T09:22:01.028Z,0.0
2018-08-27T09:23:01.760Z,0.0
2018-08-27T09:24:02.481Z,0.0
2018-08-27T09:25:03.218Z,0.0
2018-08-27T09:26:03.989Z,4.1
2018-08-27T09:27:04.712Z,5.6
2018-08-27T09:28:05.441Z,2.3
2018-08-27T09:29:06.170Z,1.8
2018-08-27T09:30:06.894Z,3.7
2018-08-27T09:31:07.963Z,11.0
2018-08-27T09:32:08.694Z,5.5
2018-08-27T09:33:09.488Z,7.0
2018-08-27T09:34:10.132Z,7.0
2018-08-27T09:35:10.866Z,13.9
2018-08-27T09:36:11.644Z,11.3
2018-08-27T09:37:12.363Z,19.6
2018-08-27T09:38:13.084Z,17.9
2018-08-27T09:39:13.828Z,26.5
2018-08-27T09:40:14.538Z,27.0
2018-08-27T09:41:15.276Z,18.6
2018-08-27T09:42:16.013Z,15.6
2018-08-27T09:43:16.785Z,9.1
2018-08-27T09:44:17.511Z,17.3
2018-08-27T09:45:18.494Z,19.8
2018-08-27T09:46:19.229Z,23.8
2018-08-27T09:47:19.964Z,18.5
2018-08-27T09:48:20.686Z,17.7
2018-08-27T09:49:21.404Z,18.3
2018-08-27T09:50:22.136Z,22.0
2018-08-27T09:51:22.854Z,25.2
2018-08-27T09:52:23.592Z,19.8
2018-08-27T09:53:24.310Z,15.6
2018-08-27T09:54:25.294Z,14.6
2018-08-27T09:55:26.035Z,20.8
2018-08-27T09:56:26.754Z,17.2
2018-08-27T09:57:27.480Z,19.9
2018-08-27T09:58:28.212Z,11.2
2018-08-27T09:59:28.930Z,22.2
2018-08-27T10:00:29.662Z,26.6
2018-08-27T10:01:30.394Z,13.9
2018-08-27T10:02:31.117Z,13.9
2018-08-27T10:03:32.096Z,12.0
2018-08-27T10:04:32.820Z,20.5
2018-08-27T10:05:33.544Z,11.9
2018-08-27T10:06:34.375Z,10.8
2018-08-27T10:07:35.111Z,7.3
2018-08-27T10:08:35.837Z,3.1
2018-08-27T10:09:36.555Z,2.1
2018-08-27T10:10:37.284Z,0.8
2018-08-27T10:11:38.011Z,0.0
2018-08-27T10:12:38.998Z,12.0
2018-08-27T10:13:39.736Z,4.5
2018-08-27T10:14:40.457Z,16.4
2018-08-27T10:15:41.199Z,9.4
2018-08-27T10:16:41.938Z,13.0
2018-08-27T10:17:42.669Z,13.0
2018-08-27T10:18:43.399Z,13.1
2018-08-27T10:19:44.123Z,14.8
2018-08-27T10:20:44.836Z,8.9
2018-08-27T10:21:45.562Z,17.2
2018-08-27T10:22:46.342Z,12.5
2018-08-27T10:23:47.071Z,16.3
2018-08-27T10:24:47.794Z,11.9
2018-08-27T10:25:48.560Z,20.6
2018-08-27T10:26:49.296Z,17.2
2018-08-27T10:27:50.026Z,6.3
2018-08-27T10:28:50.756Z,20.5
2018-08-27T10:29:51.529Z,16.3
2018-08-27T10:30:52.203Z,14.4
2018-08-27T10:31:52.944Z,23.5
2018-08-27T10:32:53.675Z,23.7
2018-08-27T10:33:54.391Z,19.9
2018-08-27T10:34:55.111Z,17.3
2018-08-27T10:35:55.831Z,19.3
2018-08-27T10:36:56.552Z,14.9
2018-08-27T10:37:57.291Z,14.3
2018-08-27T10:38:58.013Z,12.4
2018-08-27T10:39:59.096Z,8.6
2018-08-27T10:40:59.823Z,11.5
2018-08-27T10:42:00.540Z,14.2
2018-08-27T10:43:01.277Z,10.3
2018-08-27T10:44:01.994Z,12.7
2018-08-27T10:45:02.970Z,14.2
2018-08-27T10:46:03.715Z,22.8
2018-08-27T10:47:04.435Z,25.4
2018-08-27T10:48:05.162Z,32.5
2018-08-27T10:49:05.889Z,27.6
2018-08-27T10:50:06.625Z,21.8
2018-08-27T10:51:07.394Z,24.9
2018-08-27T10:52:08.114Z,29.4
2018-08-27T10:53:08.843Z,30.3
2018-08-27T10:54:09.574Z,28.2
2018-08-27T10:55:10.314Z,22.8
2018-08-27T10:56:11.043Z,29.2
2018-08-27T10:57:11.783Z,26.6
2018-08-27T10:58:12.554Z,35.9
2018-08-27T10:59:13.239Z,38.1
2018-08-27T11:00:13.964Z,35.1
2018-08-27T11:01:14.687Z,33.7
2018-08-27T11:02:15.414Z,35.0
2018-08-27T11:03:16.158Z,30.9
2018-08-27T11:04:16.879Z,27.9
2018-08-27T11:05:17.597Z,25.8
2018-08-27T11:06:18.320Z,21.4
2018-08-27T11:07:19.051Z,25.7
2018-08-27T11:08:19.784Z,19.7
2018-08-27T11:09:20.521Z,18.2
2018-08-27T11:10:21.242Z,21.8
2018-08-27T11:11:21.971Z,19.8
2018-08-27T11:12:22.697Z,20.8
2018-08-27T11:13:23.416Z,30.6
2018-08-27T11:14:24.145Z,32.6
2018-08-27T11:15:24.871Z,26.9
2018-08-27T11:16:25.594Z,25.8
2018-08-27T11:17:26.572Z,28.4
2018-08-27T11:18:27.290Z,28.5
2018-08-27T11:19:28.111Z,17.8
2018-08-27T11:20:28.951Z,11.8
2018-08-27T11:21:29.518Z,15.0
2018-08-27T11:22:30.244Z,8.7
2018-08-27T11:23:30.974Z,5.3
2018-08-27T11:24:31.718Z,0.0
2018-08-27T11:25:32.441Z,0.0
2018-08-27T11:26:33.285Z,0.0
2018-08-27T11:27:33.893Z,0.0
2018-08-27T11:28:34.626Z,0.0
2018-08-27T11:29:35.365Z,0.0
2018-08-27T11:30:36.083Z,0.0
2018-08-27T11:31:36.814Z,0.0
2018-08-27T11:32:37.546Z,0.0
2018-08-27T11:33:38.280Z,0.0
2018-08-27T11:34:39.021Z,0.0
2018-08-27T11:35:39.770Z,0.0
2018-08-27T11:36:40.508Z,0.0
2018-08-27T11:37:41.249Z,0.0
2018-08-27T11:38:41.968Z,0.0
2018-08-27T11:39:42.701Z,0.0
2018-08-27T11:40:43.424Z,0.0
2018-08-27T11:41:44.152Z,0.0
2018-08-27T11:42:44.881Z,0.0
2018-08-27T11:43:45.610Z,0.0
2018-08-27T11:44:46.327Z,0.0
2018-08-27T11:45:47.356Z,0.0
2018-08-27T11:46:48.090Z,0.0
2018-08-27T11:47:48.817Z,0.0
2018-08-27T11:48:49.560Z,0.0
2018-08-27T11:49:50.347Z,0.0
2018-08-27T11:50:51.186Z,0.0
2018-08-27T11:51:51.789Z,0.0
2018-08-27T11:52:52.519Z,0.0
2018-08-27T11:53:53.251Z,0.0
2018-08-27T11:54:53.993Z,0.0
2018-08-27T11:55:54.717Z,0.0
2018-08-27T11:56:56.068Z,0.0
2018-08-27T11:57:56.796Z,0.0
2018-08-27T11:58:57.525Z,0.0
2018-08-27T11:59:58.506Z,0.0
2018-08-27T12:00:59.239Z,0.0
2018-08-27T12:02:00.035Z,0.0
2018-08-27T12:03:00.701Z,0.0
2018-08-27T12:04:01.435Z,0.0
2018-08-27T12:05:02.151Z,0.0
2018-08-27T12:06:02.873Z,0.0
2018-08-27T12:07:03.600Z,0.0
2018-08-27T12:08:04.308Z,0.0
2018-08-27T12:09:05.052Z,0.0
2018-08-27T12:10:05.787Z,0.0
2018-08-27T12:11:06.519Z,0.0
2018-08-27T12:12:07.300Z,0.0
2018-08-27T12:13:08.030Z,0.0
2018-08-27T12:14:08.758Z,0.0
2018-08-27T12:15:09.488Z,0.0
2018-08-27T12:16:10.214Z,0.0
2018-08-27T12:17:10.951Z,0.0
2018-08-27T12:18:11.677Z,0.0
2018-08-27T12:19:12.421Z,0.0
2018-08-27T12:20:13.135Z,0.0
2018-08-27T12:21:13.906Z,0.0
2018-08-27T12:22:14.641Z,0.0
2018-08-27T12:23:15.367Z,0.0
2018-08-27T12:24:16.102Z,0.0
2018-08-27T12:25:16.829Z,0.0
2018-08-27T12:26:17.580Z,0.0
2018-08-27T12:27:18.572Z,0.0
2018-08-27T12:28:19.296Z,0.0
2018-08-27T12:29:20.109Z,0.0
2018-08-27T12:30:20.833Z,0.0
2018-08-27T12:31:22.675Z,0.0
2018-08-27T12:32:23.571Z,0.0
2018-08-27T12:33:24.371Z,0.0
2018-08-27T12:34:25.097Z,0.0
2018-08-27T12:35:25.830Z,14.0
2018-08-27T12:36:26.555Z,13.4
2018-08-27T12:37:27.294Z,29.0
2018-08-27T12:38:28.031Z,19.9
2018-08-27T12:39:28.778Z,34.7
2018-08-27T12:40:29.519Z,43.7
2018-08-27T12:41:30.242Z,44.5
2018-08-27T12:42:30.969Z,40.2
2018-08-27T12:43:31.720Z,63.8
2018-08-27T12:44:32.449Z,45.6
2018-08-27T12:45:33.181Z,68.7
2018-08-27T12:46:33.902Z,56.3
2018-08-27T12:47:34.637Z,65.4
2018-08-27T12:48:35.413Z,73.0
2018-08-27T12:49:36.134Z,55.0
2018-08-27T12:50:36.863Z,54.5
2018-08-27T12:51:37.594Z,69.9
2018-08-27T12:52:38.322Z,56.4
2018-08-27T12:53:39.105Z,51.4
2018-08-27T12:54:39.833Z,54.6
2018-08-27T12:55:40.564Z,66.8
2018-08-27T12:56:41.547Z,54.7
2018-08-27T12:57:42.557Z,50.5
2018-08-27T12:58:43.369Z,62.9
2018-08-27T12:59:44.054Z,75.4
2018-08-27T13:00:44.786Z,73.2
2018-08-27T13:01:45.521Z,87.7
2018-08-27T13:02:46.242Z,80.3
2018-08-27T13:03:46.973Z,73.4
2018-08-27T13:04:47.711Z,73.4
2018-08-27T13:05:48.484Z,71.8
2018-08-27T13:06:49.161Z,72.0
2018-08-27T13:07:49.974Z,78.1
2018-08-27T13:08:50.623Z,73.0
2018-08-27T13:09:51.402Z,67.7
2018-08-27T13:10:52.133Z,68.9
2018-08-27T13:11:52.855Z,71.7
2018-08-27T13:12:53.615Z,79.1
2018-08-27T13:13:54.311Z,73.1
2018-08-27T13:14:55.395Z,73.4
2018-08-27T13:15:56.130Z,68.9
2018-08-27T13:16:56.875Z,91.0
2018-08-27T13:17:57.600Z,72.6
2018-08-27T13:18:58.387Z,67.9
2018-08-27T13:19:59.059Z,74.5
2018-08-27T13:20:59.793Z,77.4
2018-08-27T13:22:00.523Z,69.1
2018-08-27T13:23:01.254Z,82.6
2018-08-27T13:24:01.978Z,80.6
2018-08-27T13:25:02.714Z,80.2
2018-08-27T13:26:03.456Z,70.3
2018-08-27T13:27:04.167Z,66.2
2018-08-27T13:28:04.897Z,74.2
2018-08-27T13:29:05.622Z,76.1
2018-08-27T13:30:06.397Z,71.3
2018-08-27T13:31:07.081Z,74.4
2018-08-27T13:32:07.840Z,73.1
2018-08-27T13:33:08.577Z,71.1
2018-08-27T13:34:09.427Z,66.7
2018-08-27T13:35:10.144Z,66.3
2018-08-27T13:36:10.872Z,69.2